Time;durP1;ratioP1;P1;durP2;ratioP2;P2;SDS_P1;SDS_P2;PMS_P1;PMS_P2;Temp;Humidity;BMP_temperature;BMP_pressure;BME280_temperature;BME280_humidity;BME280_pressure;Samples;Min_cycle;Max_cycle;Signal;HPM_P1;HPM_P2
2022/07/13 00:03:42;;;;;;;0.70;0.50;;;;;;;;;;20827503;28;20853;-74
2022/07/13 00:13:44;;;;;;;0.70;0.47;;;;;;;;;;20826477;28;20273;-74
2022/07/13 00:23:45;;;;;;;0.47;0.40;;;;;;;;;;20824920;28;20202;-74
2022/07/13 00:33:49;;;;;;;0.50;0.35;;;;;;;;;;20824663;28;20222;-74
2022/07/13 00:43:52;;;;;;;0.40;0.30;;;;;;;;;;20806208;28;20225;-74
2022/07/13 00:53:54;;;;;;;0.35;0.30;;;23.90;93.10;;;;;;20824467;28;20277;-74
2022/07/13 01:03:56;;;;;;;0.40;0.38;;;;;;;;;;20805325;28;20687;-74
2022/07/13 01:13:58;;;;;;;0.30;0.30;;;;;;;;;;20820766;28;20226;-74
2022/07/13 01:23:59;;;;;;;1.00;0.40;;;;;;;;;;20821525;28;20246;-74
2022/07/13 01:34:02;;;;;;;1.10;0.70;;;;;;;;;;20818738;28;20942;-74
2022/07/13 01:44:03;;;;;;;1.75;0.40;;;;;;;;;;20818721;28;20217;-74
2022/07/13 01:54:05;;;;;;;0.50;0.40;;;;;;;;;;20820149;28;20279;-74
2022/07/13 02:04:07;;;;;;;0.40;0.30;;;;;;;;;;20801948;28;20211;-74
2022/07/13 02:14:09;;;;;;;0.60;0.60;;;;;;;;;;20819875;28;20255;-73
2022/07/13 02:24:11;;;;;;;0.55;0.40;;;;;;;;;;20800772;28;20200;-74
2022/07/13 02:34:12;;;;;;;0.45;0.40;;;;;;;;;;20819626;28;20223;-74
2022/07/13 02:44:16;;;;;;;0.75;0.40;;;23.00;98.30;;;;;;20818094;28;20239;-74
2022/07/13 02:54:17;;;;;;;0.80;0.40;;;;;;;;;;20816871;28;20244;-73
2022/07/13 03:04:19;;;;;;;0.35;0.30;;;;;;;;;;20829085;28;20545;-73
2022/07/13 03:14:21;;;;;;;0.40;0.40;;;;;;;;;;20813376;28;20221;-74
2022/07/13 03:24:23;;;;;;;0.47;0.40;;;;;;;;;;20829672;28;20840;-73
2022/07/13 03:34:26;;;;;;;0.57;0.43;;;;;;;;;;20812055;28;20307;-74
2022/07/13 03:44:28;;;;;;;0.80;0.50;;;;;;;;;;20817977;28;20225;-76
2022/07/13 03:54:31;;;;;;;0.65;0.50;;;;;;;;;;20827547;28;20491;-75
2022/07/13 04:04:33;;;;;;;1.13;0.40;;;;;;;;;;20827609;28;20209;-74
2022/07/13 04:14:36;;;;;;;0.47;0.40;;;;;;;;;;20811648;28;20229;-77
2022/07/13 04:24:38;;;;;;;0.95;0.40;;;;;;;;;;20826185;28;20260;-75
2022/07/13 04:34:40;;;;;;;0.73;0.47;;;;;;;;;;20825258;28;20219;-75
2022/07/13 04:44:42;;;;;;;1.20;0.40;;;;;;;;;;20824615;28;20288;-76
2022/07/13 04:54:44;;;;;;;0.63;0.40;;;;;;;;;;20816275;28;20740;-73
2022/07/13 05:04:46;;;;;;;0.52;0.40;;;;;;;;;;20821294;28;20202;-73
2022/07/13 05:14:53;;;;;;;2.00;1.80;;;;;;;;;;20802759;28;20231;-73
2022/07/13 05:24:55;;;;;;;0.73;0.40;;;;;;;;;;20821239;28;20211;-73
2022/07/13 05:34:57;;;;;;;0.77;0.47;;;;;;;;;;20805438;28;20257;-73
2022/07/13 05:45:00;;;;;;;0.40;0.30;;;;;;;;;;20822636;28;20266;-73
2022/07/13 05:55:01;;;;;;;3.33;0.40;;;;;;;;;;20821410;28;20295;-73
2022/07/13 06:05:03;;;;;;;0.95;0.52;;;;;;;;;;20820051;28;20604;-73
2022/07/13 06:15:05;;;;;;;1.65;0.60;;;23.00;99.90;;;;;;20820748;28;20216;-73
2022/07/13 06:25:07;;;;;;;0.57;0.40;;;;;;;;;;20819752;28;20583;-73
2022/07/13 06:35:09;;;;;;;0.45;0.35;;;;;;;;;;20825894;28;20220;-73
2022/07/13 06:45:11;;;;;;;0.50;0.32;;;;;;;;;;20835797;28;20216;-74
2022/07/13 06:55:13;;;;;;;0.43;0.40;;;23.10;99.90;;;;;;20839521;28;20575;-73
2022/07/13 07:05:15;;;;;;;1.10;0.50;;;;;;;;;;20833363;28;20199;-73
2022/07/13 07:15:17;;;;;;;1.50;0.30;;;;;;;;;;20832026;28;20765;-73
2022/07/13 07:25:19;;;;;;;3.80;0.52;;;;;;;;;;20831304;28;20270;-73
2022/07/13 07:35:20;;;;;;;1.25;0.45;;;;;;;;;;20831997;28;20303;-73
2022/07/13 07:45:22;;;;;;;0.40;0.30;;;;;;;;;;20829572;28;20213;-73
2022/07/13 07:55:24;;;;;;;1.88;0.50;;;;;;;;;;20829852;28;20230;-74
2022/07/13 08:05:26;;;;;;;0.60;0.47;;;;;;;;;;20829234;28;20209;-74
2022/07/13 08:15:28;;;;;;;0.40;0.40;;;;;;;;;;20828750;28;20225;-74
2022/07/13 08:25:29;;;;;;;0.70;0.40;;;;;;;;;;20827737;28;20204;-74
2022/07/13 08:45:52;;;;;;;0.70;0.30;;;;;;;;;;20825334;28;20254;-74
2022/07/13 08:55:56;;;;;;;0.47;0.30;;;;;;;;;;21019121;22;20292;-74
2022/07/13 09:05:59;;;;;;;1.25;0.43;;;;;;;;;;21136016;28;20217;-73
2022/07/13 09:16:13;;;;;;;0.38;0.20;;;;;;;;;;21157216;28;20218;-74
2022/07/13 09:26:16;;;;;;;0.30;0.30;;;;;;;;;;21155456;28;20213;-74
2022/07/13 09:36:22;;;;;;;0.63;0.30;;;27.30;94.80;;;;;;21155562;28;20241;-73
2022/07/13 09:46:23;;;;;;;0.30;0.30;;;;;;;;;;21156267;28;20207;-74
2022/07/13 09:56:27;;;;;;;0.30;0.30;;;27.30;92.90;;;;;;21154631;28;20628;-75
2022/07/13 10:06:29;;;;;;;1.02;0.30;;;;;;;;;;21157358;28;20560;-74
2022/07/13 10:16:31;;;;;;;1.17;0.40;;;;;;;;;;21171467;28;20221;-74
2022/07/13 10:26:34;;;;;;;1.48;0.30;;;;;;;;;;21169650;28;20294;-74
2022/07/13 10:36:57;;;;;;;0.40;0.30;;;28.50;90.00;;;;;;21153001;28;20214;-75
2022/07/13 10:46:59;;;;;;;0.20;0.20;;;;;;;;;;21170135;28;20681;-75
2022/07/13 10:57:16;;;;;;;0.28;0.28;;;;;;;;;;21172470;28;20278;-74
2022/07/13 11:07:39;;;;;;;1.02;0.28;;;;;;;;;;21166355;28;20291;-74
2022/07/13 11:17:40;;;;;;;0.20;0.20;;;;;;;;;;21165499;28;20263;-75
2022/07/13 11:27:45;;;;;;;0.10;0.10;;;;;;;;;;21165390;28;20766;-74
2022/07/13 11:37:47;;;;;;;0.80;0.20;;;;;;;;;;21165697;28;20568;-76
2022/07/13 11:47:49;;;;;;;0.35;0.22;;;;;;;;;;21163873;28;20226;-75
2022/07/13 11:58:20;;;;;;;0.20;0.20;;;;;;;;;;21165724;28;20264;-75
2022/07/13 12:08:24;;;;;;;1.98;0.40;;;28.40;81.20;;;;;;21161452;28;20221;-75
2022/07/13 12:18:26;;;;;;;0.52;0.20;;;;;;;;;;21161520;28;20577;-75
2022/07/13 12:28:28;;;;;;;0.90;0.28;;;29.40;80.00;;;;;;21159547;28;20219;-75
2022/07/13 12:38:31;;;;;;;0.52;0.32;;;;;;;;;;21159355;28;20215;-75
2022/07/13 12:48:33;;;;;;;0.38;0.30;;;;;;;;;;21159509;28;20272;-75
2022/07/13 12:58:44;;;;;;;0.32;0.22;;;30.70;76.20;;;;;;21172663;28;20257;-75
2022/07/13 13:08:45;;;;;;;0.68;0.30;;;;;;;;;;21173380;28;20260;-75
2022/07/13 13:18:47;;;;;;;0.75;0.10;;;;;;;;;;21175852;28;20659;-75
2022/07/13 13:39:09;;;;;;;0.20;0.20;;;;;;;;;;21173061;28;20566;-74
2022/07/13 13:49:13;;;;;;;1.05;0.30;;;;;;;;;;21171990;28;20219;-75
2022/07/13 13:59:15;;;;;;;0.40;0.28;;;;;;;;;;21163377;28;20211;-75
2022/07/13 14:09:17;;;;;;;1.95;0.30;;;;;;;;;;21173759;28;20662;-75
2022/07/13 14:19:19;;;;;;;4.85;0.35;;;;;;;;;;21169819;28;20224;-75
2022/07/13 14:29:21;;;;;;;1.70;0.30;;;30.60;77.90;;;;;;21171116;28;20643;-75
2022/07/13 14:39:22;;;;;;;4.20;0.75;;;;;;;;;;21167944;28;20200;-75
2022/07/13 14:49:31;;;;;;;0.40;0.20;;;;;;;;;;21170798;28;20216;-75
2022/07/13 14:59:33;;;;;;;1.27;0.50;;;;;;;;;;20908408;28;20221;-75
2022/07/13 15:09:35;;;;;;;2.42;0.50;;;;;;;;;;20914836;28;20264;-73
2022/07/13 15:19:37;;;;;;;0.25;0.20;;;;;;;;;;20915806;28;20240;-73
2022/07/13 15:29:39;;;;;;;0.20;0.20;;;;;;;;;;20913836;28;20210;-73
2022/07/13 15:39:40;;;;;;;0.90;0.30;;;;;;;;;;20881223;28;20229;-73
2022/07/13 15:49:42;;;;;;;1.58;0.20;;;;;;;;;;20912851;28;20222;-74
2022/07/13 15:59:44;;;;;;;0.17;0.17;;;;;;;;;;20912954;28;20248;-73
2022/07/13 16:09:45;;;;;;;0.88;0.20;;;;;;;;;;20910122;28;20276;-73
2022/07/13 16:19:47;;;;;;;0.35;0.30;;;;;;;;;;20912181;28;20206;-74
2022/07/13 16:29:49;;;;;;;1.15;0.40;;;;;;;;;;20891500;28;20597;-73
2022/07/13 16:39:51;;;;;;;0.40;0.30;;;;;;;;;;20908996;28;20202;-73
2022/07/13 16:49:53;;;;;;;0.20;0.20;;;;;;;;;;20908062;28;20230;-74
2022/07/13 16:59:54;;;;;;;1.98;0.30;;;;;;;;;;20891183;28;20283;-75
2022/07/13 17:09:56;;;;;;;0.40;0.30;;;;;;;;;;20924028;28;20238;-73
2022/07/13 17:19:58;;;;;;;0.68;0.22;;;;;;;;;;20888080;28;20206;-74
2022/07/13 17:30:00;;;;;;;0.32;0.20;;;;;;;;;;20865166;28;20218;-74
2022/07/13 17:40:02;;;;;;;1.13;0.40;;;;;;;;;;20868016;28;20229;-74
2022/07/13 17:50:05;;;;;;;0.20;0.20;;;30.70;69.50;;;;;;20864894;28;20230;-74
2022/07/13 18:00:07;;;;;;;0.30;0.20;;;;;;;;;;20906458;28;20729;-73
2022/07/13 18:10:10;;;;;;;1.15;0.30;;;;;;;;;;20897364;28;20227;-73
2022/07/13 18:20:12;;;;;;;0.95;0.30;;;;;;;;;;20889611;28;20209;-77
2022/07/13 18:30:15;;;;;;;0.63;0.20;;;;;;;;;;20897013;28;20218;-74
2022/07/13 18:40:19;;;;;;;0.20;0.20;;;;;;;;;;20902824;28;20757;-75
2022/07/13 18:50:21;;;;;;;0.88;0.20;;;;;;;;;;20903027;28;20210;-74
2022/07/13 19:00:23;;;;;;;1.25;0.17;;;;;;;;;;20894730;28;20225;-73
2022/07/13 19:10:26;;;;;;;1.65;0.20;;;;;;;;;;20895208;28;20279;-73
2022/07/13 19:20:27;;;;;;;0.20;0.20;;;;;;;;;;20891614;28;20214;-73
2022/07/13 19:30:32;;;;;;;1.75;0.30;;;;;;;;;;20902633;28;20591;-74
2022/07/13 19:40:34;;;;;;;0.70;0.30;;;;;;;;;;20902550;28;20747;-74
2022/07/13 19:50:35;;;;;;;0.63;0.38;;;;;;;;;;20905194;28;20606;-72
2022/07/13 20:00:38;;;;;;;0.32;0.20;;;;;;;;;;20903789;28;20209;-73
2022/07/13 20:10:40;;;;;;;1.70;0.43;;;;;;;;;;20903295;28;20776;-74
2022/07/13 20:20:43;;;;;;;0.55;0.20;;;;;;;;;;20899219;28;20700;-72
2022/07/13 20:30:45;;;;;;;1.30;0.25;;;;;;;;;;20902914;28;20291;-73
2022/07/13 20:40:46;;;;;;;0.63;0.40;;;;;;;;;;20908220;28;20235;-72
2022/07/13 20:50:48;;;;;;;0.65;0.20;;;;;;;;;;20906020;28;20214;-74
2022/07/13 21:00:50;;;;;;;0.25;0.20;;;;;;;;;;20905514;28;20274;-74
2022/07/13 21:10:52;;;;;;;0.68;0.30;;;;;;;;;;20904530;28;20212;-74
2022/07/13 21:20:54;;;;;;;1.02;0.50;;;;;;;;;;20905447;28;20220;-74
2022/07/13 21:30:56;;;;;;;0.98;0.30;;;;;;;;;;20903864;28;20220;-74
2022/07/13 21:40:57;;;;;;;4.88;0.50;;;;;;;;;;20903383;28;20630;-74
2022/07/13 21:50:59;;;;;;;2.58;0.40;;;;;;;;;;20904305;28;20212;-73
2022/07/13 22:01:01;;;;;;;1.25;0.47;;;;;;;;;;20902137;28;20213;-74
2022/07/13 22:11:21;;;;;;;0.80;0.50;;;;;;;;;;20928521;28;20217;-74
2022/07/13 22:21:41;;;;;;;0.80;0.40;;;;;;;;;;20930750;28;20541;-74
2022/07/13 22:32:02;;;;;;;1.20;0.47;;;;;;;;;;20928214;28;20279;-74
2022/07/13 22:42:41;;;;;;;0.75;0.35;;;27.70;75.80;;;;;;20928007;28;20208;-74
2022/07/13 22:53:20;;;;;;;1.38;0.50;;;27.60;77.90;;;;;;20929617;28;20634;-74
2022/07/13 23:03:41;;;;;;;1.95;0.73;;;;;;;;;;20926326;28;20205;-74
2022/07/13 23:14:01;;;;;;;2.08;0.43;;;;;;;;;;20925581;28;20708;-75
2022/07/13 23:24:40;;;;;;;0.98;0.47;;;27.20;80.40;;;;;;20914654;28;20687;-74
2022/07/13 23:34:43;;;;;;;0.98;0.40;;;;;;;;;;20928321;28;20217;-72
2022/07/13 23:44:44;;;;;;;3.03;0.93;;;;;;;;;;20913350;28;20836;-74
2022/07/13 23:54:46;;;;;;;0.45;0.38;;;;;;;;;;20911620;28;20695;-74
